首页
METAR-TAF:

METAR-TAF

机场 :

因斯布魯克機場

因斯布鲁克, 奥地利

纬度: 47-16N, 经度: 011-21E, 海拔: 581米

当前天气观测

该预报发布于32分钟前的11:20 UTC
风速4节,风向西转西南,在西之间变化
温度 1°C
湿度 86%
气压 1032 hPa
能见度10公里或以上
少量云层高于1000英尺
散云层高于2000英尺
多云层高于5500英尺

METAR: LOWI 191120Z 25004KT 180V280 9999 FEW010 SCT020 BKN055 01/M01 Q1032 R08/29//95 NOSIG

时间: 12:52 (11:52 UTC)

预报

该预报发布于37分钟前的11:15 UTC
预报有效从19日的 12点(UTC)到 20日的 12点(UTC)
风速5节,风向西
能见度10公里或以上
散云层高于2000英尺
多云层高于5000英尺
短暂存在
从 19日的 12点(UTC)到 20日的 02点(UTC)
风速5节,风向
能見度: 3000
多云层高于1300英尺
小阵雪
成为
从 20日的 00点(UTC)到 20日的 02点(UTC)
多云层高于1500英尺
几率 40%
从 20日的 02点(UTC)到 20日的 10点(UTC)
多云层高于800英尺
成为
从 20日的 10点(UTC)到 20日的 12点(UTC)
能见度10公里或以上
1500米以下无云,无积雨云

TAF: LOWI 191115Z 1912/2012 27005KT 9999 SCT020 BKN050 TX02/1914Z TNM02/2007Z TEMPO 1912/2002 09005KT 3000 -SHSN BKN013 BECMG 2000/2002 BKN015 PROB40 2002/2010 BKN008 BECMG 2010/2012 CAVOK

超过4000个机场的气象观测和天气预报(METAR&TAF报告)。

可查询的气象台以黄色和红色小点在地图上表示。

将鼠标移到小点上方,可查看气象台名称。

然后点击查看天气观测和预报。

如需切换地图:点击带黑十字的绿色按钮放大地图;点击带横线的绿色按钮缩小地图;或者点击绿色箭头查看邻近地区的地图。


METAR-TAF: